createdAt,value
2023-04-25T00:00:38.028Z,733.40
2023-04-25T00:01:38.068Z,718.70
2023-04-25T00:02:38.162Z,685.70
2023-04-25T00:03:38.220Z,686.50
2023-04-25T00:04:38.255Z,690.20
2023-04-25T00:05:38.254Z,668.70
2023-04-25T00:06:37.993Z,691.40
2023-04-25T00:07:37.959Z,693.90
2023-04-25T00:08:37.941Z,686.10
2023-04-25T00:09:37.909Z,708.60
2023-04-25T00:10:37.906Z,718.20
2023-04-25T00:11:37.928Z,735.40
2023-04-25T00:12:37.864Z,743.80
2023-04-25T00:13:37.882Z,754.80
2023-04-25T00:14:37.857Z,767.70
2023-04-25T00:15:37.847Z,783.30
2023-04-25T00:16:37.941Z,783.10
2023-04-25T00:17:37.885Z,804.30
2023-04-25T00:18:37.812Z,812.10
2023-04-25T00:19:37.808Z,819.90
2023-04-25T00:20:37.813Z,828.60
2023-04-25T00:21:37.817Z,836.30
2023-04-25T00:22:37.788Z,840.80
2023-04-25T00:23:37.751Z,839.00
2023-04-25T00:24:37.734Z,837.60
2023-04-25T00:25:37.743Z,854.10
2023-04-25T00:26:37.770Z,854.70
2023-04-25T00:27:37.712Z,847.80
2023-04-25T00:28:37.698Z,840.10
2023-04-25T00:29:37.696Z,866.10
2023-04-25T00:30:37.657Z,861.80
2023-04-25T00:31:37.796Z,859.60
2023-04-25T00:32:37.742Z,854.50
2023-04-25T00:33:37.643Z,868.20
2023-04-25T00:34:37.627Z,869.80
2023-04-25T00:35:37.617Z,866.40
2023-04-25T00:36:37.648Z,863.00
2023-04-25T00:37:37.612Z,856.80
2023-04-25T00:38:37.594Z,863.80
2023-04-25T00:39:37.577Z,890.00
2023-04-25T00:40:37.560Z,867.10
2023-04-25T00:41:37.580Z,855.10
2023-04-25T00:42:37.533Z,857.50
2023-04-25T00:43:37.520Z,852.60
2023-04-25T00:44:37.530Z,853.10
2023-04-25T00:45:37.512Z,852.70
2023-04-25T00:46:37.588Z,836.80
2023-04-25T00:47:37.522Z,851.40
2023-04-25T00:48:37.481Z,861.80
2023-04-25T00:49:37.480Z,833.00
2023-04-25T00:50:37.467Z,852.40
2023-04-25T00:51:37.482Z,836.00
2023-04-25T00:52:37.429Z,857.10
2023-04-25T00:53:37.435Z,866.50
2023-04-25T00:54:37.401Z,872.50
2023-04-25T00:55:37.410Z,873.30
2023-04-25T00:56:37.425Z,904.10
2023-04-25T00:57:37.379Z,887.90
2023-04-25T00:58:37.368Z,937.40
2023-04-25T00:59:37.359Z,855.80
2023-04-25T01:00:37.373Z,882.40
2023-04-25T01:01:37.381Z,853.20
2023-04-25T01:02:37.457Z,910.50
2023-04-25T01:03:37.617Z,918.40
2023-04-25T01:04:37.301Z,959.40
2023-04-25T01:05:37.300Z,999.90
2023-04-25T01:06:37.274Z,996.80
2023-04-25T01:07:37.306Z,973.00
2023-04-25T01:08:37.250Z,999.90
2023-04-25T01:09:37.245Z,999.90
2023-04-25T01:10:37.239Z,999.90
2023-04-25T01:11:37.201Z,999.90
2023-04-25T01:12:37.248Z,989.60
2023-04-25T01:13:37.192Z,999.90
2023-04-25T01:14:37.172Z,999.90
2023-04-25T01:15:37.206Z,999.90
2023-04-25T01:16:37.199Z,997.90
2023-04-25T01:17:37.202Z,999.90
2023-04-25T01:18:37.149Z,988.50
2023-04-25T01:19:37.126Z,971.30
2023-04-25T01:20:37.106Z,975.00
2023-04-25T01:21:37.109Z,988.20
2023-04-25T01:22:37.128Z,999.90
2023-04-25T01:23:37.097Z,984.90
2023-04-25T01:24:37.074Z,985.60
2023-04-25T01:25:37.078Z,987.30
2023-04-25T01:26:37.052Z,999.90
2023-04-25T01:27:37.073Z,999.90
2023-04-25T01:28:37.007Z,999.90
2023-04-25T01:29:37.022Z,999.90
2023-04-25T01:30:36.981Z,999.90
2023-04-25T01:31:37.007Z,999.90
2023-04-25T01:32:37.047Z,999.90
2023-04-25T01:33:36.974Z,999.90
2023-04-25T01:34:36.964Z,999.90
2023-04-25T01:35:36.951Z,999.90
2023-04-25T01:36:36.929Z,999.90
2023-04-25T01:37:36.967Z,999.90
2023-04-25T01:38:36.901Z,999.90
2023-04-25T01:39:36.890Z,999.90
2023-04-25T01:40:36.898Z,999.90
2023-04-25T01:41:36.866Z,999.90
2023-04-25T01:42:36.900Z,999.90
2023-04-25T01:43:36.850Z,986.60
2023-04-25T01:44:36.841Z,999.90
2023-04-25T01:45:36.840Z,994.60
2023-04-25T01:46:36.988Z,982.40
2023-04-25T01:47:36.920Z,948.80
2023-04-25T01:48:36.802Z,970.70
2023-04-25T01:49:36.817Z,972.10
2023-04-25T01:50:36.770Z,951.60
2023-04-25T01:51:36.792Z,908.60
2023-04-25T01:52:36.751Z,871.80
2023-04-25T01:53:36.759Z,868.00
2023-04-25T01:54:36.729Z,884.70
2023-04-25T01:55:36.711Z,868.60
2023-04-25T01:56:36.744Z,899.00
2023-04-25T01:57:36.712Z,914.10
2023-04-25T01:58:36.688Z,907.80
2023-04-25T01:59:36.669Z,898.30
2023-04-25T02:00:36.688Z,904.80
2023-04-25T02:01:36.725Z,927.40
2023-04-25T02:02:36.856Z,899.70
2023-04-25T02:03:36.788Z,916.70
2023-04-25T02:04:36.707Z,885.90
2023-04-25T02:05:36.610Z,915.30
2023-04-25T02:06:36.624Z,880.50
2023-04-25T02:07:36.621Z,867.50
2023-04-25T02:08:36.581Z,913.30
2023-04-25T02:09:36.567Z,881.20
2023-04-25T02:10:36.557Z,858.50
2023-04-25T02:11:36.548Z,854.80
2023-04-25T02:12:36.576Z,856.10
2023-04-25T02:13:36.519Z,684.90
2023-04-25T02:14:36.501Z,685.30
2023-04-25T02:15:36.530Z,671.50
2023-04-25T02:16:36.652Z,656.00
2023-04-25T02:17:36.489Z,655.50
2023-04-25T02:18:36.484Z,643.50
2023-04-25T02:19:36.455Z,655.90
2023-04-25T02:20:36.445Z,729.40
2023-04-25T02:21:36.446Z,743.80
2023-04-25T02:22:36.502Z,754.80
2023-04-25T02:23:36.405Z,763.60
2023-04-25T02:24:36.403Z,776.50
2023-04-25T02:25:36.386Z,785.00
2023-04-25T02:26:36.386Z,806.90
2023-04-25T02:27:36.397Z,811.20
2023-04-25T02:28:36.376Z,816.40
2023-04-25T02:29:36.336Z,829.50
2023-04-25T02:30:36.382Z,822.10
2023-04-25T02:31:36.363Z,817.80
2023-04-25T02:32:36.410Z,811.30
2023-04-25T02:33:36.298Z,781.80
2023-04-25T02:34:36.312Z,775.40
2023-04-25T02:35:36.294Z,776.60
2023-04-25T02:36:36.254Z,784.30
2023-04-25T02:37:36.285Z,804.80
2023-04-25T02:38:36.258Z,804.40
2023-04-25T02:39:36.224Z,805.10
2023-04-25T02:40:36.248Z,781.20
2023-04-25T02:41:36.206Z,772.60
2023-04-25T02:42:36.227Z,752.10
2023-04-25T02:43:36.190Z,751.90
2023-04-25T02:44:36.166Z,772.00
2023-04-25T02:45:36.220Z,770.30
2023-04-25T02:46:39.604Z,784.20
2023-04-25T02:47:36.195Z,777.50
2023-04-25T02:48:36.157Z,786.40
2023-04-25T02:49:36.140Z,769.80
2023-04-25T02:50:36.109Z,793.20
2023-04-25T02:51:36.115Z,794.70
2023-04-25T02:52:36.124Z,790.90
2023-04-25T02:53:36.089Z,782.10
2023-04-25T02:54:36.063Z,776.50
2023-04-25T02:55:36.046Z,776.70
2023-04-25T02:56:36.043Z,782.50
2023-04-25T02:57:36.046Z,766.50
2023-04-25T02:58:36.035Z,760.80
2023-04-25T02:59:35.991Z,777.40
2023-04-25T03:00:36.056Z,768.00
2023-04-25T03:01:35.989Z,780.60
2023-04-25T03:02:36.067Z,775.20
2023-04-25T03:03:36.054Z,776.60
2023-04-25T03:04:35.982Z,777.90
2023-04-25T03:05:35.941Z,775.40
2023-04-25T03:06:35.933Z,771.70
2023-04-25T03:07:35.961Z,773.60
2023-04-25T03:08:35.935Z,781.20
2023-04-25T03:09:35.942Z,776.50
2023-04-25T03:10:35.885Z,773.40
2023-04-25T03:11:35.870Z,782.10
2023-04-25T03:12:35.889Z,776.40
2023-04-25T03:13:35.879Z,808.40
2023-04-25T03:14:35.840Z,762.30
2023-04-25T03:15:35.827Z,798.70
2023-04-25T03:16:35.836Z,774.50
2023-04-25T03:17:35.902Z,828.00
2023-04-25T03:18:35.790Z,776.70
2023-04-25T03:19:35.789Z,721.80
2023-04-25T03:20:35.787Z,762.00
2023-04-25T03:21:35.726Z,768.10
2023-04-25T03:22:35.782Z,793.90
2023-04-25T03:23:35.723Z,787.80
2023-04-25T03:24:35.718Z,795.00
2023-04-25T03:25:35.700Z,788.90
2023-04-25T03:26:35.705Z,790.10
2023-04-25T03:27:35.725Z,790.50
2023-04-25T03:28:35.688Z,780.80
2023-04-25T03:29:35.659Z,724.60
2023-04-25T03:30:35.684Z,719.90
2023-04-25T03:31:35.678Z,711.00
2023-04-25T03:32:35.748Z,702.30
2023-04-25T03:33:35.607Z,690.00
2023-04-25T03:34:35.627Z,672.70
2023-04-25T03:35:35.604Z,680.10
2023-04-25T03:36:35.596Z,693.70
2023-04-25T03:37:35.606Z,657.10
2023-04-25T03:38:35.567Z,642.20
2023-04-25T03:39:35.553Z,635.50
2023-04-25T03:40:35.556Z,632.70
2023-04-25T03:41:35.526Z,627.10
2023-04-25T03:42:35.554Z,604.60
2023-04-25T03:43:35.534Z,593.40
2023-04-25T03:44:35.485Z,590.20
2023-04-25T03:45:35.508Z,591.80
2023-04-25T03:46:35.485Z,594.60
2023-04-25T03:47:35.475Z,606.20
2023-04-25T03:48:35.474Z,602.10
2023-04-25T03:49:35.433Z,618.60
2023-04-25T03:50:35.424Z,629.20
2023-04-25T03:51:35.430Z,637.50
2023-04-25T03:52:35.471Z,678.20
2023-04-25T03:53:35.446Z,634.80
2023-04-25T03:54:35.397Z,658.40
2023-04-25T03:55:35.364Z,651.70
2023-04-25T03:56:35.386Z,658.70
2023-04-25T03:57:35.351Z,667.90
2023-04-25T03:58:35.384Z,668.10
2023-04-25T03:59:35.346Z,688.00
2023-04-25T04:00:35.312Z,694.80
2023-04-25T04:01:35.311Z,685.20
2023-04-25T04:02:35.425Z,664.10
2023-04-25T04:03:35.567Z,695.90
2023-04-25T04:04:35.464Z,721.70
2023-04-25T04:05:35.269Z,722.70
2023-04-25T04:06:35.255Z,693.40
2023-04-25T04:07:35.242Z,663.60
2023-04-25T04:08:35.262Z,668.70
2023-04-25T04:09:35.213Z,686.80
2023-04-25T04:10:35.201Z,705.00
2023-04-25T04:11:35.182Z,713.90
2023-04-25T04:12:35.182Z,719.70
2023-04-25T04:13:35.200Z,716.50
2023-04-25T04:14:35.164Z,724.80
2023-04-25T04:15:35.227Z,727.10
2023-04-25T04:16:35.278Z,736.20
2023-04-25T04:17:35.149Z,733.80
2023-04-25T04:18:35.180Z,735.80
2023-04-25T04:19:35.085Z,733.70
2023-04-25T04:20:35.087Z,730.20
2023-04-25T04:21:35.075Z,726.00
2023-04-25T04:22:35.071Z,714.60
2023-04-25T04:23:35.202Z,716.70
2023-04-25T04:24:35.060Z,715.80
2023-04-25T04:25:35.027Z,702.70
2023-04-25T04:26:35.030Z,696.80
2023-04-25T04:27:35.021Z,702.80
2023-04-25T04:28:35.052Z,703.70
2023-04-25T04:29:34.989Z,701.90
2023-04-25T04:30:35.018Z,706.80
2023-04-25T04:31:35.117Z,731.30
2023-04-25T04:32:34.978Z,731.10
2023-04-25T04:33:34.984Z,726.50
2023-04-25T04:34:34.935Z,750.10
2023-04-25T04:35:34.924Z,735.20
2023-04-25T04:36:34.924Z,789.10
2023-04-25T04:37:34.886Z,767.90
2023-04-25T04:38:34.932Z,738.60
2023-04-25T04:39:34.884Z,726.00
2023-04-25T04:40:34.857Z,741.40
2023-04-25T04:41:34.855Z,730.40
2023-04-25T04:42:34.833Z,716.80
2023-04-25T04:43:34.892Z,701.20
2023-04-25T04:44:34.873Z,579.30
2023-04-25T04:45:34.827Z,584.30
2023-04-25T04:46:34.920Z,599.20
2023-04-25T04:47:34.838Z,618.40
2023-04-25T04:48:34.828Z,610.80
2023-04-25T04:49:34.775Z,586.50
2023-04-25T04:50:34.777Z,581.60
2023-04-25T04:51:34.732Z,577.50
2023-04-25T04:52:34.743Z,563.70
2023-04-25T04:53:34.767Z,556.80
2023-04-25T04:54:34.720Z,560.10
2023-04-25T04:55:34.705Z,561.80
2023-04-25T04:56:34.706Z,532.70
2023-04-25T04:57:34.684Z,514.10
2023-04-25T04:58:34.739Z,498.30
2023-04-25T04:59:34.646Z,284.20
2023-04-25T05:00:34.675Z,108.30
2023-04-25T05:01:34.624Z,130.40
2023-04-25T05:02:34.832Z,164.20
2023-04-25T05:03:34.864Z,214.70
2023-04-25T05:04:34.741Z,254.40
2023-04-25T05:05:34.609Z,268.30
2023-04-25T05:06:34.588Z,340.20
2023-04-25T05:07:34.575Z,296.60
2023-04-25T05:08:34.603Z,357.60
2023-04-25T05:09:34.560Z,312.60
2023-04-25T05:10:34.513Z,353.80
2023-04-25T05:11:34.513Z,283.20
2023-04-25T05:12:35.859Z,365.90
2023-04-25T05:13:34.548Z,272.10
2023-04-25T05:14:34.515Z,236.70
2023-04-25T05:15:34.514Z,190.90
2023-04-25T05:16:34.523Z,174.40
2023-04-25T05:17:34.686Z,316.90
2023-04-25T05:18:34.494Z,255.90
2023-04-25T05:19:34.443Z,221.90
2023-04-25T05:20:34.421Z,318.40
2023-04-25T05:21:34.403Z,313.50
2023-04-25T05:22:34.383Z,467.80
2023-04-25T05:23:34.444Z,200.10
2023-04-25T05:24:34.392Z,240.20
2023-04-25T05:25:34.362Z,202.50
2023-04-25T05:26:34.392Z,427.00
2023-04-25T05:27:34.350Z,286.50
2023-04-25T05:28:34.369Z,490.20
2023-04-25T05:29:34.324Z,96.30
2023-04-25T05:30:34.321Z,170.50
2023-04-25T05:31:35.232Z,74.90
2023-04-25T05:32:34.342Z,105.70
2023-04-25T05:33:34.315Z,74.10
2023-04-25T05:34:34.257Z,100.90
2023-04-25T05:35:34.294Z,174.40
2023-04-25T05:36:34.272Z,69.60
2023-04-25T05:37:34.225Z,130.00
2023-04-25T05:38:35.120Z,68.10
2023-04-25T05:39:34.180Z,60.30
2023-04-25T05:40:34.188Z,297.60
2023-04-25T05:41:34.183Z,347.50
2023-04-25T05:42:34.185Z,55.90
2023-04-25T05:43:34.248Z,85.50
2023-04-25T05:44:34.200Z,84.10
2023-04-25T05:45:34.175Z,66.40
2023-04-25T05:46:34.269Z,116.40
2023-04-25T05:47:34.378Z,457.20
2023-04-25T05:48:34.157Z,140.20
2023-04-25T05:49:34.105Z,30.60
2023-04-25T05:50:34.083Z,33.10
2023-04-25T05:51:34.076Z,186.00
2023-04-25T05:52:34.058Z,31.80
2023-04-25T05:53:34.097Z,331.30
2023-04-25T05:54:34.069Z,46.70
2023-04-25T05:55:34.051Z,371.50
2023-04-25T05:56:34.044Z,33.90
2023-04-25T05:57:33.998Z,32.70
2023-04-25T05:58:34.057Z,95.90
2023-04-25T05:59:33.958Z,31.30
2023-04-25T06:00:33.983Z,34.00
2023-04-25T06:01:33.982Z,46.60
2023-04-25T06:02:34.092Z,23.70
2023-04-25T06:03:34.132Z,27.10
2023-04-25T06:04:34.373Z,46.70
2023-04-25T06:05:34.257Z,36.00
2023-04-25T06:06:33.884Z,50.00
2023-04-25T06:07:33.881Z,50.20
2023-04-25T06:08:33.960Z,75.70
2023-04-25T06:09:33.881Z,54.00
2023-04-25T06:10:33.863Z,37.30
2023-04-25T06:11:33.835Z,39.60
2023-04-25T06:12:33.862Z,29.40
2023-04-25T06:13:33.879Z,34.50
2023-04-25T06:14:33.820Z,25.40
2023-04-25T06:15:33.824Z,24.60
2023-04-25T06:16:33.806Z,23.50
2023-04-25T06:17:33.795Z,27.10
2023-04-25T06:18:33.774Z,28.90
2023-04-25T06:19:33.787Z,596.90
2023-04-25T06:20:33.764Z,121.70
2023-04-25T06:21:33.781Z,46.80
2023-04-25T06:22:33.735Z,377.40
2023-04-25T06:23:33.718Z,16.40
2023-04-25T06:24:33.742Z,68.30
2023-04-25T06:25:33.692Z,19.60
2023-04-25T06:26:33.675Z,176.30
2023-04-25T06:27:33.663Z,60.30
2023-04-25T06:28:33.687Z,193.20
2023-04-25T06:29:33.659Z,16.20
2023-04-25T06:30:33.622Z,242.60
2023-04-25T06:31:33.713Z,14.50
2023-04-25T06:32:33.649Z,336.80
2023-04-25T06:33:33.618Z,18.50
2023-04-25T06:34:33.577Z,19.90
2023-04-25T06:35:33.590Z,95.90
2023-04-25T06:36:33.568Z,112.30
2023-04-25T06:37:33.577Z,64.90
2023-04-25T06:38:33.569Z,26.70
2023-04-25T06:39:33.580Z,24.20
2023-04-25T06:40:33.520Z,26.70
2023-04-25T06:41:33.498Z,68.70
2023-04-25T06:42:33.501Z,180.80
2023-04-25T06:43:33.490Z,129.20
2023-04-25T06:44:33.540Z,103.50
2023-04-25T06:45:33.458Z,43.70
2023-04-25T06:46:33.503Z,16.30
2023-04-25T06:47:33.471Z,15.70
2023-04-25T06:48:33.481Z,121.40
2023-04-25T06:49:33.420Z,144.50
2023-04-25T06:50:33.405Z,154.10
2023-04-25T06:51:33.389Z,14.90
2023-04-25T06:52:33.415Z,33.40
2023-04-25T06:53:33.423Z,19.70
2023-04-25T06:54:33.374Z,74.90
2023-04-25T06:55:33.392Z,63.80
2023-04-25T06:56:33.414Z,19.50
2023-04-25T06:57:33.342Z,15.60
2023-04-25T06:58:33.345Z,15.10
2023-04-25T06:59:33.312Z,24.90
2023-04-25T07:00:33.301Z,152.40
2023-04-25T07:01:33.262Z,185.10
2023-04-25T07:02:33.411Z,22.90
2023-04-25T07:03:33.417Z,131.80
2023-04-25T07:04:33.367Z,156.90
2023-04-25T07:05:33.262Z,39.10
2023-04-25T07:06:33.223Z,275.90
2023-04-25T07:07:33.211Z,19.30
2023-04-25T07:08:33.207Z,213.50
2023-04-25T07:09:33.264Z,121.10
2023-04-25T07:10:33.210Z,127.20
2023-04-25T07:11:33.163Z,254.10
2023-04-25T07:12:33.157Z,235.60
2023-04-25T07:13:33.144Z,220.60
2023-04-25T07:14:33.192Z,294.60
2023-04-25T07:15:33.129Z,264.20
2023-04-25T07:16:33.140Z,72.30
2023-04-25T07:17:33.181Z,80.20
2023-04-25T07:18:33.095Z,26.00
2023-04-25T07:19:33.128Z,28.00
2023-04-25T07:20:33.056Z,31.50
2023-04-25T07:21:33.083Z,30.40
2023-04-25T07:22:33.050Z,43.40
2023-04-25T07:23:33.030Z,39.50
2023-04-25T07:24:33.056Z,29.30
2023-04-25T07:25:33.105Z,23.20
2023-04-25T07:26:33.021Z,25.20
2023-04-25T07:27:33.005Z,22.70
2023-04-25T07:28:32.964Z,27.50
2023-04-25T07:29:33.012Z,24.80
2023-04-25T07:30:32.939Z,32.90
2023-04-25T07:31:32.998Z,45.00
2023-04-25T07:32:32.958Z,29.70
2023-04-25T07:33:32.975Z,31.40
2023-04-25T07:34:32.984Z,64.20
2023-04-25T07:35:32.966Z,62.90
2023-04-25T07:36:32.875Z,89.30
2023-04-25T07:37:32.902Z,39.20
2023-04-25T07:38:32.903Z,43.20
2023-04-25T07:39:32.894Z,67.90
2023-04-25T07:40:32.833Z,129.60
2023-04-25T07:41:32.835Z,45.80
2023-04-25T07:42:32.833Z,51.00
2023-04-25T07:43:32.812Z,38.60
2023-04-25T07:44:32.834Z,65.40
2023-04-25T07:45:32.806Z,64.60
2023-04-25T07:46:32.850Z,36.10
2023-04-25T07:47:32.830Z,223.20
2023-04-25T07:48:32.757Z,173.30
2023-04-25T07:49:32.812Z,63.10
2023-04-25T07:50:32.757Z,66.30
2023-04-25T07:51:32.753Z,40.60
2023-04-25T07:52:32.723Z,35.20
2023-04-25T07:53:32.960Z,17.40
2023-04-25T07:54:32.734Z,20.60
2023-04-25T07:55:32.671Z,13.30
2023-04-25T07:56:45.236Z,18.60
2023-04-25T07:57:33.646Z,19.70
2023-04-25T07:58:32.647Z,13.80
2023-04-25T07:59:32.659Z,21.90
2023-04-25T08:00:32.656Z,26.80
2023-04-25T08:01:32.600Z,47.30
2023-04-25T08:02:32.704Z,38.10
2023-04-25T08:03:32.881Z,24.60
2023-04-25T08:04:32.770Z,43.60
2023-04-25T08:05:32.759Z,71.50
2023-04-25T08:06:32.934Z,128.60
2023-04-25T08:07:32.565Z,236.90
2023-04-25T08:08:32.533Z,149.50
2023-04-25T08:09:32.552Z,28.20
2023-04-25T08:10:32.509Z,30.90
2023-04-25T08:11:32.504Z,41.90
2023-04-25T08:12:32.510Z,58.30
2023-04-25T08:13:32.466Z,66.80
2023-04-25T08:14:32.492Z,103.90
2023-04-25T08:15:32.478Z,232.90
2023-04-25T08:16:32.488Z,42.40
2023-04-25T08:17:32.450Z,53.10
2023-04-25T08:18:32.455Z,169.30
2023-04-25T08:19:32.472Z,150.10
2023-04-25T08:20:32.398Z,220.10
2023-04-25T08:21:32.456Z,74.30
2023-04-25T08:22:32.372Z,106.00
2023-04-25T08:23:32.356Z,48.60
2023-04-25T08:24:32.350Z,39.90
2023-04-25T08:25:32.402Z,54.40
2023-04-25T08:26:32.390Z,64.00
2023-04-25T08:27:32.316Z,67.60
2023-04-25T08:28:32.332Z,52.80
2023-04-25T08:29:32.426Z,46.10
2023-04-25T08:30:32.333Z,41.30
2023-04-25T08:31:32.318Z,90.40
2023-04-25T08:32:32.270Z,141.30
2023-04-25T08:33:32.271Z,207.20
2023-04-25T08:34:32.262Z,61.80
2023-04-25T08:35:32.263Z,36.40
2023-04-25T08:36:39.264Z,89.40
2023-04-25T08:37:33.194Z,32.40
2023-04-25T08:38:32.195Z,29.70
2023-04-25T08:39:32.171Z,35.80
2023-04-25T08:40:32.207Z,47.50
2023-04-25T08:41:32.147Z,53.30
2023-04-25T08:42:32.150Z,86.70
2023-04-25T08:43:32.144Z,59.30
2023-04-25T08:44:32.149Z,61.50
2023-04-25T08:45:32.263Z,26.00
2023-04-25T08:46:32.247Z,64.90
2023-04-25T08:47:32.158Z,29.80
2023-04-25T08:48:32.068Z,108.10
2023-04-25T08:49:32.080Z,73.00
2023-04-25T08:50:32.100Z,69.30
2023-04-25T08:51:32.036Z,60.00
2023-04-25T08:52:32.050Z,82.80
2023-04-25T08:53:31.997Z,72.30
2023-04-25T08:54:35.580Z,72.30
2023-04-25T08:55:32.029Z,118.90
2023-04-25T08:56:31.977Z,163.30
2023-04-25T08:57:31.955Z,124.00
2023-04-25T08:58:31.959Z,69.50
2023-04-25T08:59:32.060Z,52.20
2023-04-25T09:00:32.063Z,32.10
2023-04-25T09:01:31.990Z,90.60
2023-04-25T09:02:31.953Z,62.60
2023-04-25T09:03:32.040Z,46.00
2023-04-25T09:04:31.877Z,66.90
2023-04-25T09:05:31.914Z,44.50
2023-04-25T09:06:31.883Z,130.20
2023-04-25T09:07:31.848Z,111.30
2023-04-25T09:08:31.840Z,98.80
2023-04-25T09:09:31.874Z,65.90
2023-04-25T09:11:31.825Z,60.90
2023-04-25T09:12:31.787Z,32.00
2023-04-25T09:13:31.779Z,219.00
2023-04-25T09:14:31.762Z,113.80
2023-04-25T09:15:31.855Z,229.90
2023-04-25T09:16:32.718Z,184.80
2023-04-25T09:17:31.765Z,308.30
2023-04-25T09:18:31.718Z,58.60
2023-04-25T09:19:40.398Z,66.30
2023-04-25T09:20:35.210Z,33.80
2023-04-25T09:21:31.676Z,21.60
2023-04-25T09:22:31.665Z,44.70
2023-04-25T09:23:31.770Z,21.50
2023-04-25T09:24:31.658Z,44.80
2023-04-25T09:25:31.713Z,25.20
2023-04-25T09:26:31.787Z,49.20
2023-04-25T09:27:31.696Z,16.40
2023-04-25T09:28:31.634Z,22.50
2023-04-25T09:29:31.631Z,63.00
2023-04-25T09:30:31.683Z,140.60
2023-04-25T09:31:31.602Z,46.50
2023-04-25T09:32:31.635Z,188.40
2023-04-25T09:33:31.556Z,78.80
2023-04-25T09:34:31.533Z,79.30
2023-04-25T09:35:31.662Z,52.20
2023-04-25T09:36:31.551Z,93.80
2023-04-25T09:37:31.506Z,72.40
2023-04-25T09:38:31.492Z,84.90
2023-04-25T09:39:31.486Z,71.30
2023-04-25T09:40:31.516Z,90.10
2023-04-25T09:41:31.481Z,146.70
2023-04-25T09:42:31.469Z,172.70
2023-04-25T09:43:31.454Z,197.50
2023-04-25T09:44:31.448Z,71.00
2023-04-25T09:45:31.466Z,69.70
2023-04-25T09:46:31.529Z,46.20
2023-04-25T09:47:31.487Z,106.80
2023-04-25T09:48:31.448Z,27.70
2023-04-25T09:49:31.395Z,122.70
2023-04-25T09:50:31.408Z,48.20
2023-04-25T09:51:31.350Z,72.20
2023-04-25T09:52:31.349Z,40.30
2023-04-25T09:53:31.335Z,47.70
2023-04-25T09:54:31.306Z,78.30
2023-04-25T09:55:31.489Z,252.40
2023-04-25T09:56:31.298Z,62.60
2023-04-25T09:57:31.289Z,44.60
2023-04-25T09:58:33.108Z,112.40
2023-04-25T09:59:31.267Z,43.50
2023-04-25T10:00:31.283Z,105.30
2023-04-25T10:01:31.303Z,51.90
2023-04-25T10:02:31.325Z,121.30
2023-04-25T10:03:31.360Z,255.10
2023-04-25T10:04:33.460Z,33.70
2023-04-25T10:05:31.250Z,76.90
2023-04-25T10:06:31.218Z,116.10
2023-04-25T10:07:31.169Z,44.00
2023-04-25T10:08:31.201Z,49.30
2023-04-25T10:09:31.142Z,74.80
2023-04-25T10:10:32.126Z,129.50
2023-04-25T10:11:31.141Z,49.10
2023-04-25T10:12:31.123Z,84.00
2023-04-25T10:13:31.117Z,48.60
2023-04-25T10:14:31.106Z,111.80
2023-04-25T10:15:31.150Z,44.20
2023-04-25T10:16:31.254Z,55.50
2023-04-25T10:17:31.123Z,194.90
2023-04-25T10:18:31.050Z,141.20
2023-04-25T10:19:31.062Z,244.80
2023-04-25T10:20:31.115Z,383.90
2023-04-25T10:21:31.015Z,100.80
2023-04-25T10:22:30.981Z,232.10
2023-04-25T10:23:31.001Z,292.20
2023-04-25T10:24:31.006Z,156.10
2023-04-25T10:25:30.998Z,86.50
2023-04-25T10:26:31.387Z,234.00
2023-04-25T10:27:30.943Z,381.80
2023-04-25T10:28:30.958Z,126.70
2023-04-25T10:29:30.972Z,80.70
2023-04-25T10:30:31.030Z,29.90
2023-04-25T10:31:31.028Z,153.60
2023-04-25T10:32:31.321Z,99.50
2023-04-25T10:33:30.881Z,114.90
2023-04-25T10:34:30.869Z,206.20
2023-04-25T10:35:30.932Z,244.90
2023-04-25T10:36:30.874Z,247.80
2023-04-25T10:37:30.861Z,188.70
2023-04-25T10:38:30.830Z,202.30
2023-04-25T10:39:30.815Z,173.10
2023-04-25T10:40:30.900Z,49.80
2023-04-25T10:41:30.780Z,366.40
2023-04-25T10:42:30.782Z,158.00
2023-04-25T10:43:30.787Z,140.30
2023-04-25T10:44:30.789Z,195.50
2023-04-25T10:45:30.786Z,89.60
2023-04-25T10:46:30.810Z,376.60
2023-04-25T10:47:30.765Z,296.20
2023-04-25T10:48:30.719Z,222.60
2023-04-25T10:49:30.703Z,208.20
2023-04-25T10:50:30.742Z,249.70
2023-04-25T10:51:37.187Z,173.70
2023-04-25T10:52:31.686Z,165.30
2023-04-25T10:53:30.676Z,146.60
2023-04-25T10:54:30.657Z,163.00
2023-04-25T10:55:30.700Z,117.80
2023-04-25T10:56:30.638Z,136.60
2023-04-25T10:57:30.659Z,43.00
2023-04-25T10:58:30.632Z,93.80
2023-04-25T10:59:30.582Z,23.60
2023-04-25T11:00:38.321Z,64.30
2023-04-25T11:01:31.649Z,23.50
2023-04-25T11:02:30.694Z,25.20
2023-04-25T11:03:30.703Z,24.10
2023-04-25T11:04:30.797Z,37.60
2023-04-25T11:05:30.543Z,24.10
2023-04-25T11:06:30.565Z,58.30
2023-04-25T11:07:30.519Z,35.50
2023-04-25T11:08:30.501Z,55.70
2023-04-25T11:09:30.485Z,87.40
2023-04-25T11:10:30.477Z,55.40
2023-04-25T11:11:30.528Z,99.40
2023-04-25T11:12:30.424Z,155.70
2023-04-25T11:13:30.436Z,112.40
2023-04-25T11:14:30.416Z,112.30
2023-04-25T11:15:30.402Z,197.80
2023-04-25T11:16:30.490Z,212.90
2023-04-25T11:17:30.508Z,90.40
2023-04-25T11:18:30.459Z,117.20
2023-04-25T11:19:30.371Z,61.20
2023-04-25T11:20:30.385Z,100.30
2023-04-25T11:21:30.405Z,148.60
2023-04-25T11:22:30.334Z,280.80
2023-04-25T11:23:30.333Z,83.80
2023-04-25T11:24:30.309Z,130.50
2023-04-25T11:25:30.310Z,122.00
2023-04-25T11:26:30.332Z,91.50
2023-04-25T11:27:30.283Z,91.30
2023-04-25T11:28:30.263Z,258.30
2023-04-25T11:29:30.279Z,184.70
2023-04-25T11:30:30.253Z,72.70
2023-04-25T11:31:30.323Z,214.40
2023-04-25T11:32:30.307Z,240.60
2023-04-25T11:33:30.225Z,144.80
2023-04-25T11:34:30.226Z,214.20
2023-04-25T11:35:30.195Z,282.80
2023-04-25T11:36:30.220Z,417.60
2023-04-25T11:37:30.171Z,379.00
2023-04-25T11:38:30.188Z,482.80
2023-04-25T11:39:30.170Z,514.90
2023-04-25T11:40:30.132Z,510.00
2023-04-25T11:41:30.152Z,462.90
2023-04-25T11:42:30.103Z,452.90
2023-04-25T11:43:30.269Z,508.40
2023-04-25T11:44:30.105Z,366.00
2023-04-25T11:45:30.073Z,333.80
2023-04-25T11:46:30.177Z,271.90
2023-04-25T11:47:30.153Z,303.10
2023-04-25T11:48:30.075Z,301.00
2023-04-25T11:49:30.457Z,383.30
2023-04-25T11:50:30.008Z,366.80
2023-04-25T11:51:30.089Z,357.10
2023-04-25T11:52:30.015Z,532.70
2023-04-25T11:53:29.994Z,286.10
2023-04-25T11:54:29.965Z,254.90
2023-04-25T11:55:30.026Z,280.00
2023-04-25T11:56:29.969Z,343.80
2023-04-25T11:57:29.963Z,412.60
2023-04-25T11:58:29.945Z,352.60
2023-04-25T11:59:29.939Z,293.90
2023-04-25T12:00:29.920Z,290.30
2023-04-25T12:01:31.742Z,265.20
2023-04-25T12:02:31.040Z,315.20
2023-04-25T12:03:30.015Z,253.80
2023-04-25T12:04:30.134Z,361.50
2023-04-25T12:05:33.345Z,256.00
2023-04-25T12:06:29.899Z,184.20
2023-04-25T12:07:29.846Z,277.00
2023-04-25T12:08:29.812Z,262.50
2023-04-25T12:09:29.811Z,214.10
2023-04-25T12:10:29.799Z,137.00
2023-04-25T12:11:29.801Z,118.50
2023-04-25T12:12:29.804Z,188.90
2023-04-25T12:13:29.794Z,185.80
2023-04-25T12:14:29.775Z,160.80
2023-04-25T12:15:29.742Z,97.00
2023-04-25T12:16:29.752Z,421.20
2023-04-25T12:17:29.810Z,474.30
2023-04-25T12:18:29.691Z,529.80
2023-04-25T12:19:29.693Z,557.70
2023-04-25T12:20:29.697Z,595.60
2023-04-25T12:21:29.674Z,570.60
2023-04-25T12:22:29.730Z,636.60
2023-04-25T12:23:29.702Z,655.40
2023-04-25T12:24:29.649Z,610.80
2023-04-25T12:25:29.610Z,615.90
2023-04-25T12:26:29.614Z,691.90
2023-04-25T12:27:29.801Z,785.80
2023-04-25T12:28:29.581Z,678.60
2023-04-25T12:29:34.557Z,679.60
2023-04-25T12:30:30.581Z,640.30
2023-04-25T12:31:29.580Z,531.10
2023-04-25T12:32:29.648Z,646.90
2023-04-25T12:33:29.542Z,648.40
2023-04-25T12:34:29.510Z,642.80
2023-04-25T12:35:29.501Z,632.10
2023-04-25T12:36:29.499Z,517.40